createdAt,value
2018-02-14T00:00:27.941Z,99839
2018-02-14T00:01:33.428Z,99833
2018-02-14T00:02:38.639Z,99848
2018-02-14T00:03:44.403Z,99842
2018-02-14T00:04:49.306Z,99839
2018-02-14T00:05:53.675Z,99848
2018-02-14T00:06:57.463Z,99836
2018-02-14T00:08:01.835Z,99842
2018-02-14T00:09:05.910Z,99839
2018-02-14T00:10:11.205Z,99854
2018-02-14T00:11:16.384Z,99854
2018-02-14T00:12:21.880Z,99845
2018-02-14T00:13:27.079Z,99845
2018-02-14T00:14:32.568Z,99839
2018-02-14T00:15:38.328Z,99848
2018-02-14T00:16:43.829Z,99848
2018-02-14T00:17:49.284Z,99856
2018-02-14T00:18:54.748Z,99851
2018-02-14T00:20:00.222Z,99848
2018-02-14T00:21:04.870Z,99851
2018-02-14T00:22:10.056Z,99856
2018-02-14T00:23:15.264Z,99865
2018-02-14T00:24:20.767Z,99862
2018-02-14T00:25:40.625Z,99854
2018-02-14T00:26:45.795Z,99862
2018-02-14T00:27:52.157Z,99865
2018-02-14T00:28:57.344Z,99859
2018-02-14T00:30:02.812Z,99859
2018-02-14T00:31:08.806Z,99856
2018-02-14T00:32:13.975Z,99854
2018-02-14T00:33:19.456Z,99856
2018-02-14T00:34:24.944Z,99859
2018-02-14T00:35:29.282Z,99851
2018-02-14T00:36:34.764Z,99862
2018-02-14T00:37:38.236Z,99859
2018-02-14T00:38:42.596Z,99865
2018-02-14T00:39:47.214Z,99865
2018-02-14T00:40:51.544Z,99868
2018-02-14T00:41:55.596Z,99865
2018-02-14T00:43:00.083Z,99868
2018-02-14T00:44:04.144Z,99862
2018-02-14T00:45:08.484Z,99865
2018-02-14T00:46:13.499Z,99862
2018-02-14T00:47:17.566Z,99868
2018-02-14T00:48:21.888Z,99868
2018-02-14T00:49:26.540Z,99868
2018-02-14T00:50:31.155Z,99868
2018-02-14T00:51:35.336Z,99865
2018-02-14T00:52:38.816Z,99871
2018-02-14T00:53:42.588Z,99868
2018-02-14T00:54:46.994Z,99865
2018-02-14T00:55:50.503Z,99874
2018-02-14T00:56:54.545Z,99868
2018-02-14T00:57:59.644Z,99871
2018-02-14T00:59:04.826Z,99868
2018-02-14T01:00:10.030Z,99871
2018-02-14T01:01:15.800Z,99874
2018-02-14T01:02:20.979Z,99871
2018-02-14T01:03:27.140Z,99874
2018-02-14T01:04:32.020Z,99877
2018-02-14T01:05:36.946Z,99877
2018-02-14T01:06:42.702Z,99886
2018-02-14T01:07:47.618Z,99888
2018-02-14T01:08:52.802Z,99886
2018-02-14T01:09:58.021Z,99888
2018-02-14T01:11:02.653Z,99877
2018-02-14T01:12:07.553Z,99886
2018-02-14T01:13:12.741Z,99888
2018-02-14T01:14:17.092Z,99883
2018-02-14T01:15:22.019Z,99897
2018-02-14T01:16:27.518Z,99897
2018-02-14T01:17:32.701Z,99906
2018-02-14T01:18:37.998Z,99897
2018-02-14T01:19:43.458Z,99900
2018-02-14T01:20:48.933Z,99894
2018-02-14T01:21:53.667Z,99906
2018-02-14T01:22:59.144Z,99897
2018-02-14T01:24:04.608Z,99903
2018-02-14T01:25:10.104Z,99903
2018-02-14T01:26:15.038Z,99900
2018-02-14T01:27:20.243Z,99903
2018-02-14T01:28:26.458Z,99903
2018-02-14T01:29:31.937Z,99903
2018-02-14T01:30:37.968Z,99909
2018-02-14T01:31:43.427Z,99909
2018-02-14T01:32:48.910Z,99909
2018-02-14T01:33:54.838Z,99915
2018-02-14T01:34:59.996Z,99906
2018-02-14T01:36:05.184Z,99906
2018-02-14T01:37:10.721Z,99912
2018-02-14T01:38:16.200Z,99929
2018-02-14T01:39:21.392Z,99915
2018-02-14T01:40:27.364Z,99915
2018-02-14T01:41:32.830Z,99906
2018-02-14T01:42:38.603Z,99912
2018-02-14T01:43:44.094Z,99917
2018-02-14T01:44:49.269Z,99915
2018-02-14T01:45:55.042Z,99915
2018-02-14T01:47:00.514Z,99920
2018-02-14T01:48:05.140Z,99920
2018-02-14T01:49:10.915Z,99915
2018-02-14T01:50:16.417Z,99926
2018-02-14T01:51:21.898Z,99926
2018-02-14T01:52:27.368Z,99915
2018-02-14T01:53:32.562Z,99917
2018-02-14T01:54:38.215Z,99915
2018-02-14T01:55:43.692Z,99923
2018-02-14T01:56:49.170Z,99920
2018-02-14T01:57:55.144Z,99917
2018-02-14T01:59:00.604Z,99923
2018-02-14T02:00:06.097Z,99932
2018-02-14T02:01:11.872Z,99920
2018-02-14T02:02:17.363Z,99926
2018-02-14T02:03:22.583Z,99920
2018-02-14T02:04:28.499Z,99938
2018-02-14T02:05:33.962Z,99926
2018-02-14T02:06:39.450Z,99938
2018-02-14T02:07:44.633Z,99926
2018-02-14T02:08:49.820Z,99926
2018-02-14T02:09:55.625Z,99926
2018-02-14T02:11:00.537Z,99926
2018-02-14T02:12:05.438Z,99920
2018-02-14T02:13:10.349Z,99932
2018-02-14T02:14:15.564Z,99932
2018-02-14T02:15:20.498Z,99926
2018-02-14T02:16:25.698Z,99932
2018-02-14T02:17:31.173Z,99926
2018-02-14T02:18:36.755Z,99926
2018-02-14T02:19:42.222Z,99932
2018-02-14T02:20:47.678Z,99926
2018-02-14T02:21:53.148Z,99938
2018-02-14T02:22:58.619Z,99932
2018-02-14T02:24:03.817Z,99926
2018-02-14T02:25:09.296Z,99938
2018-02-14T02:26:14.752Z,99929
2018-02-14T02:27:20.258Z,99938
2018-02-14T02:28:25.736Z,99932
2018-02-14T02:29:31.191Z,99926
2018-02-14T02:30:36.680Z,99920
2018-02-14T02:31:41.875Z,99926
2018-02-14T02:32:47.070Z,99926
2018-02-14T02:33:52.848Z,99926
2018-02-14T02:34:57.780Z,99932
2018-02-14T02:36:02.970Z,99926
2018-02-14T02:37:08.145Z,99923
2018-02-14T02:38:13.611Z,99929
2018-02-14T02:39:18.788Z,99932
2018-02-14T02:40:24.986Z,99926
2018-02-14T02:41:29.885Z,99926
2018-02-14T02:42:35.907Z,99926
2018-02-14T02:43:41.363Z,99938
2018-02-14T02:44:46.531Z,99932
2018-02-14T02:45:52.066Z,99938
2018-02-14T02:46:57.241Z,99926
2018-02-14T02:48:02.726Z,99932
2018-02-14T02:49:08.491Z,99935
2018-02-14T02:50:13.685Z,99935
2018-02-14T02:51:19.159Z,99935
2018-02-14T02:52:24.943Z,99935
2018-02-14T02:53:30.419Z,99935
2018-02-14T02:54:36.186Z,99944
2018-02-14T02:55:41.659Z,99935
2018-02-14T02:56:46.872Z,99938
2018-02-14T02:57:52.656Z,99944
2018-02-14T02:58:57.577Z,99938
2018-02-14T03:00:02.767Z,99938
2018-02-14T03:01:07.697Z,99944
2018-02-14T03:02:13.238Z,99955
2018-02-14T03:03:18.705Z,99946
2018-02-14T03:04:24.465Z,99938
2018-02-14T03:05:29.363Z,99952
2018-02-14T03:06:34.777Z,99949
2018-02-14T03:07:40.278Z,99949
2018-02-14T03:08:45.474Z,99949
2018-02-14T03:09:50.466Z,99944
2018-02-14T03:10:55.942Z,99944
2018-02-14T03:12:00.844Z,99964
2018-02-14T03:13:06.069Z,99958
2018-02-14T03:14:11.548Z,99944
2018-02-14T03:15:16.719Z,99949
2018-02-14T03:16:22.486Z,99958
2018-02-14T03:17:27.650Z,99946
2018-02-14T03:18:33.683Z,99955
2018-02-14T03:19:38.860Z,99952
2018-02-14T03:20:44.338Z,99955
2018-02-14T03:21:50.274Z,99955
2018-02-14T03:22:55.741Z,99955
2018-02-14T03:24:00.631Z,99958
2018-02-14T03:25:06.141Z,99961
2018-02-14T03:26:11.064Z,99969
2018-02-14T03:27:16.523Z,99964
2018-02-14T03:28:22.034Z,99961
2018-02-14T03:29:27.505Z,99967
2018-02-14T03:30:33.270Z,99967
2018-02-14T03:31:37.895Z,99961
2018-02-14T03:32:43.434Z,99964
2018-02-14T03:33:49.349Z,99949
2018-02-14T03:34:54.810Z,99961
2018-02-14T03:36:00.289Z,99961
2018-02-14T03:37:05.083Z,99961
2018-02-14T03:38:10.564Z,99969
2018-02-14T03:39:16.236Z,99967
2018-02-14T03:40:21.742Z,99964
2018-02-14T03:41:26.638Z,99967
2018-02-14T03:42:31.987Z,99972
2018-02-14T03:43:37.517Z,99972
2018-02-14T03:44:42.701Z,99977
2018-02-14T03:45:48.730Z,99977
2018-02-14T03:46:53.909Z,99972
2018-02-14T03:47:59.372Z,99969
2018-02-14T03:49:04.581Z,99975
2018-02-14T03:50:09.809Z,99977
2018-02-14T03:51:15.284Z,99975
2018-02-14T03:52:20.777Z,99977
2018-02-14T03:53:25.952Z,99977
2018-02-14T03:54:31.931Z,99977
2018-02-14T03:55:37.396Z,99972
2018-02-14T03:56:42.568Z,99977
2018-02-14T03:57:48.312Z,99975
2018-02-14T03:58:53.786Z,99969
2018-02-14T03:59:59.249Z,99983
2018-02-14T04:01:04.426Z,99989
2018-02-14T04:02:09.335Z,99980
2018-02-14T04:03:14.798Z,100001
2018-02-14T04:04:20.666Z,99989
2018-02-14T04:05:25.859Z,100001
2018-02-14T04:06:31.768Z,99992
2018-02-14T04:07:37.245Z,100004
2018-02-14T04:08:42.703Z,100006
2018-02-14T04:09:48.503Z,99998
2018-02-14T04:10:53.400Z,100012
2018-02-14T04:11:58.594Z,100006
2018-02-14T04:13:03.951Z,100018
2018-02-14T04:14:09.131Z,100012
2018-02-14T04:15:14.312Z,100009
2018-02-14T04:16:20.207Z,100006
2018-02-14T04:17:25.713Z,100015
2018-02-14T04:18:31.483Z,100001
2018-02-14T04:19:36.666Z,100024
2018-02-14T04:20:42.128Z,100015
2018-02-14T04:21:47.315Z,100012
2018-02-14T04:22:52.221Z,100015
2018-02-14T04:23:57.113Z,100021
2018-02-14T04:25:02.621Z,100015
2018-02-14T04:26:06.965Z,100024
2018-02-14T04:27:12.481Z,100030
2018-02-14T04:28:18.207Z,100024
2018-02-14T04:29:23.672Z,100018
2018-02-14T04:30:29.264Z,100030
2018-02-14T04:31:34.727Z,100024
2018-02-14T04:32:39.909Z,100033
2018-02-14T04:33:45.654Z,100030
2018-02-14T04:34:51.132Z,100035
2018-02-14T04:35:56.022Z,100030
2018-02-14T04:37:01.160Z,100038
2018-02-14T04:38:06.356Z,100041
2018-02-14T04:39:11.547Z,100044
2018-02-14T04:40:17.261Z,100050
2018-02-14T04:41:22.184Z,100044
2018-02-14T04:42:28.044Z,100038
2018-02-14T04:43:33.152Z,100050
2018-02-14T04:44:38.634Z,100035
2018-02-14T04:45:43.794Z,100035
2018-02-14T04:46:49.269Z,100050
2018-02-14T04:47:54.193Z,100044
2018-02-14T04:48:59.626Z,100047
2018-02-14T04:50:04.819Z,100053
2018-02-14T04:51:09.984Z,100059
2018-02-14T04:52:15.716Z,100059
2018-02-14T04:53:21.188Z,100059
2018-02-14T04:54:26.958Z,100059
2018-02-14T04:55:32.166Z,100056
2018-02-14T04:56:37.361Z,100059
2018-02-14T04:57:42.784Z,100067
2018-02-14T04:58:48.252Z,100067
2018-02-14T04:59:53.439Z,100062
2018-02-14T05:00:58.786Z,100075
2018-02-14T05:02:03.968Z,100067
2018-02-14T05:03:09.205Z,100064
2018-02-14T05:04:14.029Z,100064
2018-02-14T05:05:19.497Z,100081
2018-02-14T05:06:39.706Z,100067
2018-02-14T05:07:44.881Z,100056
2018-02-14T05:08:50.369Z,100070
2018-02-14T05:09:56.071Z,100064
2018-02-14T05:11:01.262Z,100070
2018-02-14T05:12:05.894Z,100067
2018-02-14T05:13:11.068Z,100084
2018-02-14T05:14:16.537Z,100075
2018-02-14T05:15:22.019Z,100067
2018-02-14T05:16:27.310Z,100075
2018-02-14T05:17:32.785Z,100075
2018-02-14T05:18:38.932Z,100067
2018-02-14T05:19:43.847Z,100078
2018-02-14T05:20:49.312Z,100067
2018-02-14T05:21:55.027Z,100075
2018-02-14T05:23:00.481Z,100064
2018-02-14T05:24:05.688Z,100081
2018-02-14T05:25:11.446Z,100075
2018-02-14T05:26:16.639Z,100081
2018-02-14T05:27:21.829Z,100070
2018-02-14T05:28:26.986Z,100070
2018-02-14T05:29:31.868Z,100075
2018-02-14T05:30:37.396Z,100081
2018-02-14T05:31:42.575Z,100087
2018-02-14T05:32:47.783Z,100075
2018-02-14T05:33:53.270Z,100090
2018-02-14T05:34:58.744Z,100087
2018-02-14T05:36:03.936Z,100090
2018-02-14T05:37:09.756Z,100078
2018-02-14T05:38:15.217Z,100081
2018-02-14T05:39:20.699Z,100090
2018-02-14T05:40:40.639Z,100081
2018-02-14T05:41:45.557Z,100090
2018-02-14T05:42:51.486Z,100087
2018-02-14T05:43:56.947Z,100101
2018-02-14T05:45:02.414Z,100090
2018-02-14T05:46:06.748Z,100098
2018-02-14T05:47:11.951Z,100104
2018-02-14T05:48:17.133Z,100101
2018-02-14T05:49:22.962Z,100093
2018-02-14T05:50:28.128Z,100098
2018-02-14T05:51:34.009Z,100098
2018-02-14T05:52:39.188Z,100087
2018-02-14T05:53:44.668Z,100093
2018-02-14T05:54:51.047Z,100093
2018-02-14T05:55:56.250Z,100093
2018-02-14T05:57:01.425Z,100098
2018-02-14T05:58:07.239Z,100093
2018-02-14T05:59:12.692Z,100095
2018-02-14T06:00:18.172Z,100101
2018-02-14T06:01:23.413Z,100095
2018-02-14T06:02:28.874Z,100098
2018-02-14T06:03:34.459Z,100093
2018-02-14T06:04:39.351Z,100098
2018-02-14T06:05:44.813Z,100095
2018-02-14T06:06:50.632Z,100098
2018-02-14T06:07:55.826Z,100093
2018-02-14T06:09:01.039Z,100101
2018-02-14T06:10:06.533Z,100104
2018-02-14T06:11:11.734Z,100101
2018-02-14T06:12:17.215Z,100101
2018-02-14T06:13:22.072Z,100110
2018-02-14T06:14:26.998Z,100107
2018-02-14T06:15:32.979Z,100110
2018-02-14T06:16:38.481Z,100104
2018-02-14T06:17:43.954Z,100101
2018-02-14T06:18:49.676Z,100110
2018-02-14T06:19:55.128Z,100110
2018-02-14T06:21:00.309Z,100116
2018-02-14T06:22:05.738Z,100116
2018-02-14T06:23:10.926Z,100110
2018-02-14T06:24:16.133Z,100110
2018-02-14T06:25:21.765Z,100125
2018-02-14T06:26:26.963Z,100119
2018-02-14T06:27:32.299Z,100122
2018-02-14T06:28:37.487Z,100110
2018-02-14T06:29:42.687Z,100119
2018-02-14T06:30:48.103Z,100122
2018-02-14T06:31:53.589Z,100116
2018-02-14T06:32:58.502Z,100127
2018-02-14T06:34:04.236Z,100122
2018-02-14T06:35:09.706Z,100119
2018-02-14T06:36:14.878Z,100133
2018-02-14T06:37:20.174Z,100136
2018-02-14T06:38:25.649Z,100122
2018-02-14T06:39:30.736Z,100127
2018-02-14T06:40:35.634Z,100130
2018-02-14T06:41:41.113Z,100124
2018-02-14T06:42:46.274Z,100122
2018-02-14T06:43:51.738Z,100136
2018-02-14T06:44:57.243Z,100139
2018-02-14T06:46:02.668Z,100130
2018-02-14T06:47:07.624Z,100130
2018-02-14T06:48:13.082Z,100136
2018-02-14T06:49:18.803Z,100133
2018-02-14T06:50:24.082Z,100127
2018-02-14T06:51:29.352Z,100122
2018-02-14T06:52:34.535Z,100124
2018-02-14T06:53:40.095Z,100127
2018-02-14T06:54:46.296Z,100127
2018-02-14T06:55:51.533Z,100130
2018-02-14T06:56:57.019Z,100122
2018-02-14T06:58:02.506Z,100130
2018-02-14T06:59:07.709Z,100139
2018-02-14T07:00:12.612Z,100139
2018-02-14T07:01:18.341Z,100124
2018-02-14T07:02:23.813Z,100127
2018-02-14T07:03:29.741Z,100127
2018-02-14T07:04:35.300Z,100133
2018-02-14T07:05:40.468Z,100130
2018-02-14T07:06:45.936Z,100124
2018-02-14T07:07:51.450Z,100122
2018-02-14T07:08:56.633Z,100127
2018-02-14T07:10:02.091Z,100130
2018-02-14T07:11:07.265Z,100133
2018-02-14T07:12:12.191Z,100133
2018-02-14T07:13:17.441Z,100133
2018-02-14T07:14:22.369Z,100130
2018-02-14T07:15:28.448Z,100142
2018-02-14T07:16:33.905Z,100139
2018-02-14T07:17:39.153Z,100139
2018-02-14T07:18:45.089Z,100142
2018-02-14T07:19:50.278Z,100130
2018-02-14T07:20:55.767Z,100133
2018-02-14T07:22:01.585Z,100133
2018-02-14T07:23:06.692Z,100145
2018-02-14T07:24:11.880Z,100142
2018-02-14T07:25:17.611Z,100116
2018-02-14T07:26:23.064Z,100133
2018-02-14T07:27:28.808Z,100136
2018-02-14T07:28:34.281Z,100133
2018-02-14T07:29:39.452Z,100139
2018-02-14T07:30:44.609Z,100145
2018-02-14T07:31:50.074Z,100142
2018-02-14T07:32:55.538Z,100139
2018-02-14T07:34:00.976Z,100139
2018-02-14T07:35:05.877Z,100139
2018-02-14T07:36:10.788Z,100150
2018-02-14T07:37:16.468Z,100142
2018-02-14T07:38:21.675Z,100139
2018-02-14T07:39:27.096Z,100142
2018-02-14T07:40:32.308Z,100150
2018-02-14T07:41:37.509Z,100139
2018-02-14T07:42:42.655Z,100153
2018-02-14T07:43:48.125Z,100153
2018-02-14T07:44:53.596Z,100150
2018-02-14T07:45:59.511Z,100161
2018-02-14T07:47:03.874Z,100153
2018-02-14T07:48:09.342Z,100161
2018-02-14T07:49:14.838Z,100155
2018-02-14T07:50:20.338Z,100155
2018-02-14T07:51:26.761Z,100164
2018-02-14T07:52:31.669Z,100158
2018-02-14T07:53:37.133Z,100155
2018-02-14T07:54:43.027Z,100155
2018-02-14T07:55:48.501Z,100145
2018-02-14T07:56:53.975Z,100150
2018-02-14T07:57:59.796Z,100142
2018-02-14T07:59:04.966Z,100155
2018-02-14T08:00:09.572Z,100158
2018-02-14T08:01:15.285Z,100150
2018-02-14T08:02:20.742Z,100155
2018-02-14T08:03:26.546Z,100155
2018-02-14T08:04:32.241Z,100155
2018-02-14T08:05:37.430Z,100155
2018-02-14T08:06:43.147Z,100164
2018-02-14T08:07:48.035Z,100158
2018-02-14T08:08:52.971Z,100170
2018-02-14T08:09:58.435Z,100164
2018-02-14T08:11:03.892Z,100167
2018-02-14T08:12:09.118Z,100155
2018-02-14T08:13:14.771Z,100164
2018-02-14T08:14:19.945Z,100173
2018-02-14T08:15:40.399Z,100164
2018-02-14T08:16:45.592Z,100167
2018-02-14T08:17:51.062Z,100167
2018-02-14T08:18:56.585Z,100170
2018-02-14T08:20:01.766Z,100170
2018-02-14T08:21:06.397Z,100173
2018-02-14T08:22:11.016Z,100173
2018-02-14T08:23:16.494Z,100173
2018-02-14T08:24:21.391Z,100167
2018-02-14T08:25:27.437Z,100179
2018-02-14T08:26:32.904Z,100176
2018-02-14T08:27:38.538Z,100170
2018-02-14T08:28:43.730Z,100182
2018-02-14T08:29:48.897Z,100182
2018-02-14T08:30:54.061Z,100182
2018-02-14T08:31:58.962Z,100190
2018-02-14T08:33:03.871Z,100187
2018-02-14T08:34:09.115Z,100193
2018-02-14T08:35:14.327Z,100190
2018-02-14T08:36:19.223Z,100190
2018-02-14T08:37:24.938Z,100193
2018-02-14T08:38:30.131Z,100196
2018-02-14T08:39:35.653Z,100193
2018-02-14T08:40:40.542Z,100196
2018-02-14T08:41:45.456Z,100199
2018-02-14T08:42:50.897Z,100193
2018-02-14T08:43:56.363Z,100193
2018-02-14T08:45:01.546Z,100193
2018-02-14T08:46:06.605Z,100184
2018-02-14T08:47:12.087Z,100187
2018-02-14T08:48:16.999Z,100202
2018-02-14T08:49:22.442Z,100211
2018-02-14T08:50:27.927Z,100199
2018-02-14T08:51:33.355Z,100205
2018-02-14T08:52:38.822Z,100202
2018-02-14T08:53:44.008Z,100208
2018-02-14T08:54:49.543Z,100208
2018-02-14T08:55:54.745Z,100219
2018-02-14T08:56:59.684Z,100214
2018-02-14T08:58:05.426Z,100222
2018-02-14T08:59:10.065Z,100216
2018-02-14T09:00:14.692Z,100234
2018-02-14T09:01:20.449Z,100228
2018-02-14T09:02:25.924Z,100222
2018-02-14T09:03:31.357Z,100237
2018-02-14T09:04:36.547Z,100225
2018-02-14T09:05:42.035Z,100231
2018-02-14T09:06:47.238Z,100225
2018-02-14T09:07:52.702Z,100225
2018-02-14T09:08:58.090Z,100231
2018-02-14T09:10:03.554Z,100225
2018-02-14T09:11:08.748Z,100231
2018-02-14T09:12:14.220Z,100219
2018-02-14T09:13:19.649Z,100228
2018-02-14T09:14:24.833Z,100225
2018-02-14T09:15:29.942Z,100243
2018-02-14T09:16:34.869Z,100228
2018-02-14T09:17:39.771Z,100225
2018-02-14T09:18:45.288Z,100222
2018-02-14T09:19:50.270Z,100234
2018-02-14T09:20:55.501Z,100222
2018-02-14T09:22:00.428Z,100240
2018-02-14T09:23:05.652Z,100231
2018-02-14T09:24:10.551Z,100231
2018-02-14T09:25:16.273Z,100234
2018-02-14T09:26:21.967Z,100225
2018-02-14T09:27:27.341Z,100237
2018-02-14T09:28:32.803Z,100237
2018-02-14T09:29:37.714Z,100234
2018-02-14T09:30:43.454Z,100234
2018-02-14T09:31:48.962Z,100231
2018-02-14T09:32:54.136Z,100228
2018-02-14T09:33:58.443Z,100231
2018-02-14T09:35:03.627Z,100228
2018-02-14T09:36:08.839Z,100228
2018-02-14T09:37:14.515Z,100219
2018-02-14T09:38:20.124Z,100234
2018-02-14T09:39:40.238Z,100216
2018-02-14T09:40:45.716Z,100222
2018-02-14T09:41:50.896Z,100222
2018-02-14T09:42:56.333Z,100231
2018-02-14T09:44:01.691Z,100222
2018-02-14T09:45:06.597Z,100225
2018-02-14T09:46:11.778Z,100231
2018-02-14T09:47:16.503Z,100228
2018-02-14T09:48:21.412Z,100240
2018-02-14T09:49:27.100Z,100240
2018-02-14T09:50:32.563Z,100240
2018-02-14T09:51:37.982Z,100240
2018-02-14T09:52:43.168Z,100240
2018-02-14T09:53:48.625Z,100246
2018-02-14T09:54:54.349Z,100248
2018-02-14T09:55:59.818Z,100251
2018-02-14T09:57:04.152Z,100243
2018-02-14T09:58:09.334Z,100251
2018-02-14T09:59:14.245Z,100246
2018-02-14T10:00:19.149Z,100237
2018-02-14T10:01:24.678Z,100237
2018-02-14T10:02:30.132Z,100228
2018-02-14T10:03:35.964Z,100231
2018-02-14T10:04:40.874Z,100225
2018-02-14T10:05:46.089Z,100234
2018-02-14T10:06:51.519Z,100231
2018-02-14T10:07:56.995Z,100234
2018-02-14T10:09:02.477Z,100225
2018-02-14T10:10:07.916Z,100231
2018-02-14T10:11:13.414Z,100231
2018-02-14T10:12:18.869Z,100225
2018-02-14T10:13:24.131Z,100231
2018-02-14T10:14:28.787Z,100228
2018-02-14T10:15:34.220Z,100222
2018-02-14T10:16:39.400Z,100234
2018-02-14T10:17:44.923Z,100225
2018-02-14T10:18:49.565Z,100234
2018-02-14T10:19:54.473Z,100222
2018-02-14T10:20:59.667Z,100228
2018-02-14T10:22:05.490Z,100228
2018-02-14T10:23:10.429Z,100225
2018-02-14T10:24:15.604Z,100237
2018-02-14T10:25:21.055Z,100231
2018-02-14T10:26:26.235Z,100225
2018-02-14T10:27:31.778Z,100228
2018-02-14T10:28:36.964Z,100240
2018-02-14T10:29:41.869Z,100234
2018-02-14T10:30:46.800Z,100234
2018-02-14T10:31:52.275Z,100243
2018-02-14T10:32:57.936Z,100237
2018-02-14T10:34:03.136Z,100231
2018-02-14T10:35:08.597Z,100222
2018-02-14T10:36:13.212Z,100222
2018-02-14T10:37:18.094Z,100219
2018-02-14T10:38:23.555Z,100234
2018-02-14T10:39:29.413Z,100231
2018-02-14T10:40:34.605Z,100231
2018-02-14T10:41:39.508Z,100228
2018-02-14T10:42:45.245Z,100222
2018-02-14T10:43:50.745Z,100231
2018-02-14T10:44:56.213Z,100237
2018-02-14T10:46:01.175Z,100231
2018-02-14T10:47:06.640Z,100248
2018-02-14T10:48:12.122Z,100231
2018-02-14T10:49:18.120Z,100237
2018-02-14T10:50:23.826Z,100243
2018-02-14T10:51:29.254Z,100231
2018-02-14T10:52:34.414Z,100237
2018-02-14T10:53:39.879Z,100231
2018-02-14T10:54:45.656Z,100228
2018-02-14T10:55:50.265Z,100234
2018-02-14T10:56:55.440Z,100237
2018-02-14T10:58:00.657Z,100231
2018-02-14T10:59:05.857Z,100231
2018-02-14T11:00:10.750Z,100231
2018-02-14T11:01:15.919Z,100225
2018-02-14T11:02:21.110Z,100219
2018-02-14T11:03:26.882Z,100225
2018-02-14T11:04:31.808Z,100219
2018-02-14T11:05:36.994Z,100222
2018-02-14T11:06:41.569Z,100225
2018-02-14T11:07:47.042Z,100211
2018-02-14T11:08:52.504Z,100219
2018-02-14T11:09:58.446Z,100214
2018-02-14T11:11:03.068Z,100225
2018-02-14T11:12:08.555Z,100219
2018-02-14T11:13:14.266Z,100208
2018-02-14T11:14:19.465Z,100225
2018-02-14T11:16:44.503Z,100217
2018-02-14T11:17:49.688Z,100219
2018-02-14T11:18:54.904Z,100217
2018-02-14T11:20:00.103Z,100228
2018-02-14T11:21:04.444Z,100214
2018-02-14T11:22:09.719Z,100214
2018-02-14T11:23:15.191Z,100222
2018-02-14T11:24:20.656Z,100219
2018-02-14T11:25:25.947Z,100225
2018-02-14T11:26:30.851Z,100214
2018-02-14T11:27:36.577Z,100211
2018-02-14T11:28:41.761Z,100222
2018-02-14T11:29:46.966Z,100214
2018-02-14T11:30:52.223Z,100217
2018-02-14T11:31:57.404Z,100214
2018-02-14T11:33:02.878Z,100217
2018-02-14T11:34:08.351Z,100217
2018-02-14T11:35:13.546Z,100208
2018-02-14T11:36:18.754Z,100211
2018-02-14T11:37:23.924Z,100217
2018-02-14T11:38:29.753Z,100222
2018-02-14T11:39:35.292Z,100225
2018-02-14T11:40:40.691Z,100225
2018-02-14T11:41:45.879Z,100228
2018-02-14T11:42:51.603Z,100228
2018-02-14T11:43:56.828Z,100231
2018-02-14T11:45:02.015Z,100234
2018-02-14T11:46:07.156Z,100234
2018-02-14T11:47:12.629Z,100231
2018-02-14T11:48:17.815Z,100234
2018-02-14T11:49:23.708Z,100228
2018-02-14T11:50:29.140Z,100240
2018-02-14T11:51:34.976Z,100240
2018-02-14T11:52:40.323Z,100237
2018-02-14T11:53:45.250Z,100240
2018-02-14T11:54:50.998Z,100234
2018-02-14T11:55:56.181Z,100237
2018-02-14T11:57:01.377Z,100234
2018-02-14T11:58:06.240Z,100246
2018-02-14T11:59:11.171Z,100234
2018-02-14T12:00:16.363Z,100234
2018-02-14T12:01:21.220Z,100237
2018-02-14T12:02:26.411Z,100240
2018-02-14T12:03:32.137Z,100243
2018-02-14T12:04:37.604Z,100237
2018-02-14T12:05:42.782Z,100243
2018-02-14T12:06:48.199Z,100240
2018-02-14T12:07:53.668Z,100237
2018-02-14T12:08:59.199Z,100243
2018-02-14T12:10:04.940Z,100237
2018-02-14T12:11:10.077Z,100251
2018-02-14T12:12:15.531Z,100243
2018-02-14T12:13:21.245Z,100246
2018-02-14T12:14:26.452Z,100254
2018-02-14T12:15:32.222Z,100249
2018-02-14T12:16:37.693Z,100254
2018-02-14T12:17:42.866Z,100257
2018-02-14T12:18:49.053Z,100249
2018-02-14T12:19:54.232Z,100254
2018-02-14T12:20:59.427Z,100251
2018-02-14T12:22:04.681Z,100254
2018-02-14T12:23:09.599Z,100251
2018-02-14T12:24:14.704Z,100257
2018-02-14T12:25:20.214Z,100251
2018-02-14T12:26:25.137Z,100251
2018-02-14T12:27:30.672Z,100249
2018-02-14T12:28:36.335Z,100251
2018-02-14T12:29:41.705Z,100257
2018-02-14T12:30:47.160Z,100254
2018-02-14T12:31:52.559Z,100243
2018-02-14T12:32:58.084Z,100243
2018-02-14T12:34:03.813Z,100249
2018-02-14T12:35:08.708Z,100240
2018-02-14T12:36:13.588Z,100251
2018-02-14T12:37:19.426Z,100251
2018-02-14T12:38:24.637Z,100240
2018-02-14T12:39:30.378Z,100251
2018-02-14T12:40:35.274Z,100246
2018-02-14T12:41:40.762Z,100249
2018-02-14T12:42:46.494Z,100246
2018-02-14T12:43:51.999Z,100246
2018-02-14T12:44:57.189Z,100240
2018-02-14T12:46:02.354Z,100240
2018-02-14T12:47:07.258Z,100246
2018-02-14T12:48:12.438Z,100246
2018-02-14T12:49:18.156Z,100243
2018-02-14T12:50:23.633Z,100251
2018-02-14T12:51:29.052Z,100240
2018-02-14T12:52:33.999Z,100237
2018-02-14T12:53:39.459Z,100254
2018-02-14T12:54:44.633Z,100257
2018-02-14T12:55:49.814Z,100240
2018-02-14T12:56:55.027Z,100240
2018-02-14T12:58:00.464Z,100243
2018-02-14T12:59:04.808Z,100231
2018-02-14T13:00:09.707Z,100249
2018-02-14T13:01:15.430Z,100246
2018-02-14T13:02:20.921Z,100240
2018-02-14T13:03:26.289Z,100240
2018-02-14T13:04:31.762Z,100228
2018-02-14T13:05:37.231Z,100234
2018-02-14T13:06:42.772Z,100240
2018-02-14T13:07:47.388Z,100240
2018-02-14T13:08:53.026Z,100237
2018-02-14T13:09:58.565Z,100231
2018-02-14T13:11:03.752Z,100240
2018-02-14T13:12:09.216Z,100228
2018-02-14T13:13:14.647Z,100234
2018-02-14T13:14:20.135Z,100228
2018-02-14T13:15:40.063Z,100234
2018-02-14T13:16:45.255Z,100234
2018-02-14T13:17:50.161Z,100228
2018-02-14T13:18:55.616Z,100220
2018-02-14T13:20:00.537Z,100220
2018-02-14T13:21:05.154Z,100228
2018-02-14T13:22:09.290Z,100228
2018-02-14T13:23:14.067Z,100222
2018-02-14T13:24:19.563Z,100228
2018-02-14T13:25:25.285Z,100222
2018-02-14T13:26:30.757Z,100222
2018-02-14T13:27:36.490Z,100228
2018-02-14T13:28:41.953Z,100222
2018-02-14T13:29:47.120Z,100222
2018-02-14T13:30:52.564Z,100222
2018-02-14T13:31:57.743Z,100234
2018-02-14T13:33:02.644Z,100217
2018-02-14T13:34:07.850Z,100222
2018-02-14T13:35:12.498Z,100220
2018-02-14T13:36:17.414Z,100222
2018-02-14T13:37:22.942Z,100217
2018-02-14T13:38:27.571Z,100222
2018-02-14T13:39:33.291Z,100222
2018-02-14T13:40:38.758Z,100222
2018-02-14T13:41:44.243Z,100225
2018-02-14T13:42:49.967Z,100214
2018-02-14T13:43:55.435Z,100217
2018-02-14T13:45:00.911Z,100214